createdAt,value
2023-02-18T00:01:21.403Z,1.08
2023-02-18T00:03:48.214Z,1.03
2023-02-18T00:06:16.815Z,0.95
2023-02-18T00:08:43.740Z,0.89
2023-02-18T00:11:10.545Z,0.88
2023-02-18T00:13:37.184Z,0.84
2023-02-18T00:16:11.388Z,0.78
2023-02-18T00:18:38.993Z,0.69
2023-02-18T00:21:06.822Z,0.65
2023-02-18T00:23:33.749Z,0.67
2023-02-18T00:26:06.714Z,0.64
2023-02-18T00:28:33.698Z,0.60
2023-02-18T00:31:00.870Z,0.53
2023-02-18T00:33:27.554Z,0.54
2023-02-18T00:35:54.251Z,0.54
2023-02-18T00:38:20.893Z,0.54
2023-02-18T00:40:47.591Z,0.54
2023-02-18T00:43:14.251Z,0.58
2023-02-18T00:45:40.913Z,0.56
2023-02-18T00:48:07.554Z,0.53
2023-02-18T00:50:34.213Z,0.57
2023-02-18T00:53:00.902Z,0.54
2023-02-18T00:55:27.629Z,0.57
2023-02-18T00:57:54.338Z,0.53
2023-02-18T01:00:21.068Z,0.64
2023-02-18T01:02:47.704Z,0.69
2023-02-18T01:05:14.505Z,0.77
2023-02-18T01:07:41.123Z,0.77
2023-02-18T01:10:08.155Z,0.78
2023-02-18T01:12:34.784Z,0.74
2023-02-18T01:15:01.401Z,0.74
2023-02-18T01:17:28.051Z,0.68
2023-02-18T01:19:54.762Z,0.65
2023-02-18T01:22:21.373Z,0.65
2023-02-18T01:24:48.079Z,0.61
2023-02-18T01:27:14.753Z,0.67
2023-02-18T01:29:41.371Z,0.68
2023-02-18T01:32:08.258Z,0.64
2023-02-18T01:34:35.008Z,0.62
2023-02-18T01:37:01.652Z,0.58
2023-02-18T01:39:28.254Z,0.58
2023-02-18T01:41:54.919Z,0.58
2023-02-18T01:44:24.426Z,0.58
2023-02-18T01:46:51.283Z,0.58
2023-02-18T01:49:30.128Z,0.58
2023-02-18T01:51:59.457Z,0.60
2023-02-18T01:54:31.483Z,0.60
2023-02-18T01:57:02.002Z,0.60
2023-02-18T01:59:51.095Z,0.54
2023-02-18T02:02:20.020Z,0.53
2023-02-18T02:04:46.836Z,0.53
2023-02-18T02:07:13.518Z,0.57
2023-02-18T02:09:40.225Z,0.60
2023-02-18T02:12:09.946Z,0.61
2023-02-18T02:14:48.592Z,0.58
2023-02-18T02:17:41.532Z,0.62
2023-02-18T02:20:20.193Z,0.64
2023-02-18T02:23:05.308Z,0.67
2023-02-18T02:26:16.785Z,0.62
2023-02-18T02:29:05.485Z,0.54
2023-02-18T02:31:50.952Z,0.46
2023-02-18T02:34:34.861Z,0.39
2023-02-18T02:37:25.492Z,0.36
2023-02-18T02:40:07.350Z,0.33
2023-02-18T02:42:54.999Z,0.26
2023-02-18T02:45:29.252Z,0.20
2023-02-18T02:48:04.604Z,0.14
2023-02-18T02:50:34.119Z,0.09
2023-02-18T02:53:03.705Z,0.10
2023-02-18T02:55:30.438Z,0.06
2023-02-18T02:57:57.300Z,0.05
2023-02-18T03:00:42.652Z,0.02
2023-02-18T03:03:40.425Z,0.00
2023-02-18T03:06:22.280Z,0.05
2023-02-18T03:09:04.280Z,0.07
2023-02-18T03:11:33.292Z,0.07
2023-02-18T03:14:30.257Z,0.02
2023-02-18T03:17:00.129Z,0.00
2023-02-18T03:19:33.394Z,-0.05
2023-02-18T03:22:16.384Z,-0.09
2023-02-18T03:24:44.329Z,-0.12
2023-02-18T03:27:31.352Z,-0.09
2023-02-18T03:30:04.433Z,-0.07
2023-02-18T03:32:31.224Z,-0.07
2023-02-18T03:35:03.931Z,0.00
2023-02-18T03:37:31.791Z,0.02
2023-02-18T03:39:59.840Z,0.02
2023-02-18T03:42:27.770Z,0.07
2023-02-18T03:44:54.462Z,0.13
2023-02-18T03:47:21.098Z,0.16
2023-02-18T03:49:47.840Z,0.21
2023-02-18T03:52:14.603Z,0.21
2023-02-18T03:54:41.435Z,0.21
2023-02-18T03:57:08.579Z,0.26
2023-02-18T03:59:35.212Z,0.21
2023-02-18T04:02:02.754Z,0.20
2023-02-18T04:04:29.574Z,0.14
2023-02-18T04:06:56.281Z,0.14
2023-02-18T04:09:22.892Z,0.16
2023-02-18T04:11:49.672Z,0.16
2023-02-18T04:14:16.348Z,0.09
2023-02-18T04:16:43.095Z,0.05
2023-02-18T04:19:09.762Z,-0.05
2023-02-18T04:21:36.384Z,-0.09
2023-02-18T04:24:03.029Z,-0.07
2023-02-18T04:26:29.787Z,-0.07
2023-02-18T04:28:56.438Z,-0.04
2023-02-18T04:31:23.249Z,-0.05
2023-02-18T04:33:49.988Z,-0.07
2023-02-18T04:36:16.624Z,-0.08
2023-02-18T04:38:43.433Z,-0.02
2023-02-18T04:41:10.110Z,0.03
2023-02-18T04:43:36.837Z,0.06
2023-02-18T04:46:03.574Z,0.09
2023-02-18T04:48:30.373Z,0.13
2023-02-18T04:50:57.017Z,0.13
2023-02-18T04:53:23.691Z,0.17
2023-02-18T04:55:51.787Z,0.19
2023-02-18T04:58:19.136Z,0.19
2023-02-18T05:00:45.736Z,0.14
2023-02-18T05:03:12.459Z,0.12
2023-02-18T05:05:39.170Z,0.12
2023-02-18T05:08:05.913Z,0.17
2023-02-18T05:10:32.552Z,0.20
2023-02-18T05:12:59.255Z,0.24
2023-02-18T05:15:25.938Z,0.27
2023-02-18T05:17:52.655Z,0.33
2023-02-18T05:20:19.335Z,0.34
2023-02-18T05:22:46.018Z,0.37
2023-02-18T05:25:12.700Z,0.39
2023-02-18T05:27:39.458Z,0.39
2023-02-18T05:30:06.669Z,0.40
2023-02-18T05:32:33.448Z,0.48
2023-02-18T05:35:00.111Z,0.58
2023-02-18T05:37:26.725Z,0.75
2023-02-18T05:39:53.396Z,0.82
2023-02-18T05:42:20.753Z,0.96
2023-02-18T05:44:47.463Z,1.08
2023-02-18T05:47:14.213Z,1.20
2023-02-18T05:49:41.496Z,1.33
2023-02-18T05:52:08.818Z,1.40
2023-02-18T05:54:35.655Z,1.46
2023-02-18T05:57:02.290Z,1.57
2023-02-18T05:59:28.979Z,1.71
2023-02-18T06:01:55.810Z,1.84
2023-02-18T06:04:22.468Z,1.95
2023-02-18T06:06:49.108Z,2.19
2023-02-18T06:09:15.745Z,2.40
2023-02-18T06:11:42.369Z,2.56
2023-02-18T06:14:09.257Z,2.83
2023-02-18T06:16:36.010Z,3.19
2023-02-18T06:19:02.694Z,3.62
2023-02-18T06:21:29.541Z,4.09
2023-02-18T06:23:56.334Z,4.57
2023-02-18T06:26:22.947Z,4.66
2023-02-18T06:28:49.626Z,4.77
2023-02-18T06:31:16.435Z,5.05
2023-02-18T06:33:43.248Z,5.28
2023-02-18T06:36:12.094Z,5.56
2023-02-18T06:38:40.343Z,5.83
2023-02-18T06:41:07.024Z,5.79
2023-02-18T06:43:33.672Z,5.72
2023-02-18T06:46:00.431Z,6.13
2023-02-18T06:48:27.054Z,6.61
2023-02-18T06:50:53.760Z,6.83
2023-02-18T06:53:20.443Z,7.17
2023-02-18T06:55:47.135Z,7.51
2023-02-18T06:58:13.955Z,7.64
2023-02-18T07:00:40.676Z,7.48
2023-02-18T07:03:07.410Z,7.28
2023-02-18T07:05:34.092Z,6.97
2023-02-18T07:08:00.945Z,6.89
2023-02-18T07:10:27.574Z,6.83
2023-02-18T07:12:54.220Z,6.89
2023-02-18T07:15:24.357Z,7.28
2023-02-18T07:17:51.873Z,7.27
2023-02-18T07:20:21.033Z,7.04
2023-02-18T07:22:47.785Z,6.97
2023-02-18T07:25:14.640Z,7.73
2023-02-18T07:27:41.340Z,8.31
2023-02-18T07:30:08.620Z,8.98
2023-02-18T07:32:35.358Z,9.27
2023-02-18T07:35:02.675Z,9.71
2023-02-18T07:37:29.322Z,10.33
2023-02-18T07:39:55.975Z,10.65
2023-02-18T07:42:22.611Z,11.23
2023-02-18T07:44:49.384Z,11.50
2023-02-18T07:47:18.811Z,11.29
2023-02-18T07:49:46.458Z,11.49
2023-02-18T07:52:13.983Z,11.74
2023-02-18T07:54:40.636Z,11.88
2023-02-18T07:57:07.258Z,11.97
2023-02-18T07:59:33.966Z,11.80
2023-02-18T08:02:00.718Z,11.87
2023-02-18T08:04:27.415Z,11.91
2023-02-18T08:06:54.097Z,11.81
2023-02-18T08:09:20.728Z,11.70
2023-02-18T08:11:47.358Z,11.71
2023-02-18T08:14:14.033Z,11.83
2023-02-18T08:16:40.774Z,11.60
2023-02-18T08:19:08.019Z,11.23
2023-02-18T08:21:34.826Z,11.04
2023-02-18T08:24:01.498Z,11.00
2023-02-18T08:26:28.242Z,11.08
2023-02-18T08:28:54.869Z,11.69
2023-02-18T08:31:29.401Z,12.04
2023-02-18T08:33:56.245Z,12.25
2023-02-18T08:36:23.097Z,12.70
2023-02-18T08:38:49.793Z,13.72
2023-02-18T08:41:18.783Z,14.64
2023-02-18T08:43:45.489Z,15.88
2023-02-18T08:46:15.882Z,16.98
2023-02-18T08:48:43.773Z,17.47
2023-02-18T08:51:17.747Z,17.32
2023-02-18T08:53:45.572Z,16.80
2023-02-18T08:56:13.275Z,16.33
2023-02-18T08:58:39.998Z,16.23
2023-02-18T09:01:08.019Z,16.20
2023-02-18T09:03:34.810Z,17.15
2023-02-18T09:06:01.572Z,18.14
2023-02-18T09:08:28.391Z,19.08
2023-02-18T09:10:59.016Z,19.73
2023-02-18T09:13:25.869Z,19.41
2023-02-18T09:15:59.946Z,19.23
2023-02-18T09:18:26.681Z,18.85
2023-02-18T09:20:56.161Z,18.28
2023-02-18T09:23:22.921Z,17.87
2023-02-18T09:25:49.601Z,17.22
2023-02-18T09:28:16.264Z,16.91
2023-02-18T09:30:42.913Z,16.68
2023-02-18T09:33:09.558Z,16.34
2023-02-18T09:35:42.191Z,16.08
2023-02-18T09:38:10.223Z,16.04
2023-02-18T09:40:38.639Z,15.97
2023-02-18T09:43:05.440Z,15.89
2023-02-18T09:45:32.146Z,15.92
2023-02-18T09:47:58.742Z,16.01
2023-02-18T09:50:33.001Z,16.30
2023-02-18T09:53:00.338Z,16.25
2023-02-18T09:55:39.409Z,16.33
2023-02-18T09:58:14.393Z,16.16
2023-02-18T10:01:04.611Z,15.81
2023-02-18T10:03:31.426Z,15.78
2023-02-18T10:06:05.679Z,15.97
2023-02-18T10:08:37.175Z,15.91
2023-02-18T10:11:04.128Z,15.78
2023-02-18T10:13:34.516Z,15.74
2023-02-18T10:16:02.538Z,15.85
2023-02-18T10:21:12.689Z,15.87
2023-02-18T10:23:41.300Z,15.78
2023-02-18T10:26:12.433Z,15.85
2023-02-18T10:28:39.135Z,16.01
2023-02-18T10:31:11.558Z,16.10
2023-02-18T10:33:53.920Z,16.23
2023-02-18T10:36:31.477Z,16.60
2023-02-18T10:39:49.499Z,17.14
2023-02-18T10:42:28.561Z,17.43
2023-02-18T10:45:43.696Z,17.80
2023-02-18T10:48:18.721Z,17.77
2023-02-18T10:50:45.583Z,17.90
2023-02-18T10:53:38.136Z,17.79
2023-02-18T10:56:06.520Z,17.89
2023-02-18T10:58:34.179Z,18.14
2023-02-18T11:01:05.047Z,18.42
2023-02-18T11:03:40.993Z,18.70
2023-02-18T11:06:09.610Z,18.83
2023-02-18T11:08:43.032Z,18.69
2023-02-18T11:11:13.301Z,18.72
2023-02-18T11:13:40.096Z,18.72
2023-02-18T11:16:09.431Z,18.73
2023-02-18T11:18:41.047Z,18.92
2023-02-18T11:21:40.137Z,19.11
2023-02-18T11:24:14.362Z,19.13
2023-02-18T11:26:41.088Z,18.90
2023-02-18T11:29:26.026Z,18.92
2023-02-18T11:31:56.129Z,19.04
2023-02-18T11:34:30.060Z,19.00
2023-02-18T11:36:56.830Z,18.66
2023-02-18T11:39:26.539Z,18.70
2023-02-18T11:41:59.196Z,18.46
2023-02-18T11:44:52.988Z,18.39
2023-02-18T11:47:21.971Z,18.38
2023-02-18T11:50:03.712Z,18.41
2023-02-18T11:52:47.266Z,18.42
2023-02-18T11:55:21.920Z,18.44
2023-02-18T11:58:01.485Z,18.49
2023-02-18T12:00:34.180Z,18.49
2023-02-18T12:03:00.878Z,18.41
2023-02-18T12:05:28.814Z,18.17
2023-02-18T12:07:58.457Z,18.17
2023-02-18T12:10:42.556Z,18.12
2023-02-18T12:13:28.783Z,18.29
2023-02-18T12:16:04.338Z,18.45
2023-02-18T12:19:04.474Z,18.58
2023-02-18T12:21:36.297Z,18.62
2023-02-18T12:24:08.963Z,18.62
2023-02-18T12:26:45.147Z,18.53
2023-02-18T12:29:49.183Z,18.34
2023-02-18T12:32:38.181Z,18.24
2023-02-18T12:35:36.260Z,18.35
2023-02-18T12:38:24.259Z,18.27
2023-02-18T12:40:56.560Z,18.22
2023-02-18T12:43:25.832Z,18.14
2023-02-18T12:46:10.707Z,17.96
2023-02-18T12:48:55.800Z,17.91
2023-02-18T12:51:41.027Z,18.12
2023-02-18T12:54:53.975Z,18.15
2023-02-18T12:57:33.106Z,17.97
2023-02-18T13:00:24.479Z,17.73
2023-02-18T13:03:28.026Z,17.62
2023-02-18T13:06:07.723Z,17.50
2023-02-18T13:08:53.309Z,17.38
2023-02-18T13:11:23.599Z,17.26
2023-02-18T13:14:21.215Z,17.12
2023-02-18T13:16:50.867Z,16.89
2023-02-18T13:19:24.822Z,16.81
2023-02-18T13:21:54.186Z,16.73
2023-02-18T13:24:36.534Z,16.64
2023-02-18T13:27:26.245Z,16.54
2023-02-18T13:30:17.520Z,16.42
2023-02-18T13:33:22.451Z,16.23
2023-02-18T13:36:00.378Z,16.25
2023-02-18T13:38:37.246Z,16.32
2023-02-18T13:41:03.860Z,16.39
2023-02-18T13:43:32.387Z,16.27
2023-02-18T13:46:19.103Z,16.46
2023-02-18T13:48:55.606Z,16.56
2023-02-18T13:51:29.653Z,16.74
2023-02-18T13:54:03.886Z,16.73
2023-02-18T13:56:33.218Z,16.59
2023-02-18T13:59:10.368Z,16.49
2023-02-18T14:01:45.109Z,16.53
2023-02-18T14:04:39.665Z,16.68
2023-02-18T14:07:24.507Z,16.61
2023-02-18T14:09:51.866Z,16.61
2023-02-18T14:12:24.592Z,16.53
2023-02-18T14:14:51.848Z,16.54
2023-02-18T14:17:18.487Z,16.68
2023-02-18T14:20:00.203Z,16.74
2023-02-18T14:22:46.481Z,16.57
2023-02-18T14:25:31.216Z,16.30
2023-02-18T14:28:01.922Z,15.97
2023-02-18T14:30:40.151Z,15.67
2023-02-18T14:33:06.969Z,15.53
2023-02-18T14:35:57.098Z,15.47
2023-02-18T14:38:35.754Z,15.74
2023-02-18T14:41:33.704Z,15.79
2023-02-18T14:44:29.692Z,15.43
2023-02-18T14:47:06.568Z,15.12
2023-02-18T14:49:36.349Z,14.82
2023-02-18T14:52:03.094Z,14.65
2023-02-18T14:54:29.884Z,14.51
2023-02-18T14:57:00.560Z,14.23
2023-02-18T14:59:28.906Z,14.07
2023-02-18T15:01:56.522Z,13.99
2023-02-18T15:04:24.659Z,13.83
2023-02-18T15:07:02.214Z,13.72
2023-02-18T15:09:29.000Z,13.57
2023-02-18T15:12:06.091Z,13.45
2023-02-18T15:14:35.988Z,13.34
2023-02-18T15:17:02.694Z,13.22
2023-02-18T15:19:34.135Z,13.06
2023-02-18T15:22:00.829Z,12.89
2023-02-18T15:24:34.480Z,12.72
2023-02-18T15:27:02.494Z,12.56
2023-02-18T15:29:31.842Z,12.42
2023-02-18T15:31:58.753Z,12.25
2023-02-18T15:34:39.330Z,12.15
2023-02-18T15:37:07.646Z,12.01
2023-02-18T15:39:34.872Z,11.88
2023-02-18T15:42:06.493Z,11.76
2023-02-18T15:44:33.354Z,11.56
2023-02-18T15:47:04.670Z,11.38
2023-02-18T15:49:31.390Z,11.20
2023-02-18T15:51:59.174Z,11.08
2023-02-18T15:54:25.867Z,10.90
2023-02-18T15:56:53.967Z,10.74
2023-02-18T15:59:32.848Z,10.61
2023-02-18T16:02:08.749Z,10.47
2023-02-18T16:04:39.457Z,10.39
2023-02-18T16:07:25.913Z,10.26
2023-02-18T16:10:20.541Z,10.12
2023-02-18T16:12:50.323Z,9.94
2023-02-18T16:15:24.981Z,9.81
2023-02-18T16:17:51.671Z,9.64
2023-02-18T16:20:31.135Z,9.55
2023-02-18T16:23:00.756Z,9.51
2023-02-18T16:25:40.427Z,9.38
2023-02-18T16:28:29.973Z,9.24
2023-02-18T16:30:56.661Z,9.08
2023-02-18T16:33:23.289Z,8.92
2023-02-18T16:35:50.984Z,8.78
2023-02-18T16:38:23.007Z,8.72
2023-02-18T16:40:49.912Z,8.60
2023-02-18T16:43:25.616Z,8.48
2023-02-18T16:45:54.089Z,8.36
2023-02-18T16:48:41.498Z,8.30
2023-02-18T16:51:29.806Z,8.30
2023-02-18T16:53:56.458Z,8.31
2023-02-18T16:56:27.712Z,8.27
2023-02-18T16:58:54.362Z,8.20
2023-02-18T17:01:21.062Z,8.12
2023-02-18T17:03:48.934Z,8.04
2023-02-18T17:06:16.037Z,7.93
2023-02-18T17:08:42.759Z,7.82
2023-02-18T17:11:14.703Z,7.75
2023-02-18T17:13:41.406Z,7.71
2023-02-18T17:16:10.158Z,7.55
2023-02-18T17:18:37.017Z,7.50
2023-02-18T17:21:04.236Z,7.45
2023-02-18T17:23:30.914Z,7.35
2023-02-18T17:25:57.525Z,7.30
2023-02-18T17:28:24.245Z,7.23
2023-02-18T17:30:59.382Z,7.11
2023-02-18T17:33:26.163Z,6.99
2023-02-18T17:35:52.832Z,7.00
2023-02-18T17:38:19.666Z,7.00
2023-02-18T17:40:46.437Z,7.06
2023-02-18T17:43:13.857Z,7.13
2023-02-18T17:45:52.534Z,7.14
2023-02-18T17:48:19.224Z,7.07
2023-02-18T17:50:45.918Z,7.11
2023-02-18T17:53:12.877Z,7.14
2023-02-18T17:55:40.106Z,7.17
2023-02-18T17:58:06.839Z,7.18
2023-02-18T18:00:35.398Z,7.16
2023-02-18T18:03:02.252Z,7.11
2023-02-18T18:05:39.928Z,7.08
2023-02-18T18:08:06.910Z,6.99
2023-02-18T18:10:41.612Z,6.85
2023-02-18T18:13:29.389Z,6.72
2023-02-18T18:15:57.921Z,6.64
2023-02-18T18:18:24.852Z,6.52
2023-02-18T18:20:53.143Z,6.44
2023-02-18T18:23:20.706Z,6.39
2023-02-18T18:25:51.377Z,6.41
2023-02-18T18:28:18.031Z,6.42
2023-02-18T18:30:46.424Z,6.45
2023-02-18T18:33:20.562Z,6.55
2023-02-18T18:35:49.944Z,6.55
2023-02-18T18:38:17.155Z,6.55
2023-02-18T18:40:44.260Z,6.58
2023-02-18T18:43:24.376Z,6.56
2023-02-18T18:45:51.202Z,6.48
2023-02-18T18:48:18.038Z,6.41
2023-02-18T18:50:44.746Z,6.32
2023-02-18T18:53:20.071Z,6.17
2023-02-18T18:55:46.820Z,6.13
2023-02-18T18:58:13.498Z,6.07
2023-02-18T19:00:42.210Z,6.17
2023-02-18T19:03:11.361Z,6.13
2023-02-18T19:05:41.641Z,6.09
2023-02-18T19:08:08.901Z,5.97
2023-02-18T19:10:45.462Z,5.87
2023-02-18T19:13:13.218Z,5.73
2023-02-18T19:15:39.990Z,5.59
2023-02-18T19:18:06.778Z,5.56
2023-02-18T19:20:35.899Z,5.53
2023-02-18T19:23:03.178Z,5.46
2023-02-18T19:25:30.018Z,5.41
2023-02-18T19:27:56.689Z,5.36
2023-02-18T19:30:26.947Z,5.32
2023-02-18T19:32:57.737Z,5.25
2023-02-18T19:35:24.758Z,5.18
2023-02-18T19:37:51.467Z,5.11
2023-02-18T19:40:24.981Z,5.10
2023-02-18T19:42:51.629Z,5.05
2023-02-18T19:45:18.578Z,4.97
2023-02-18T19:47:45.589Z,4.94
2023-02-18T19:50:16.127Z,4.91
2023-02-18T19:52:42.876Z,4.87
2023-02-18T19:55:09.840Z,4.85
2023-02-18T19:57:36.707Z,4.84
2023-02-18T20:00:04.641Z,4.81
2023-02-18T20:02:32.277Z,4.77
2023-02-18T20:05:01.667Z,4.76
2023-02-18T20:07:28.466Z,4.70
2023-02-18T20:09:55.199Z,4.70
2023-02-18T20:12:21.948Z,4.69
2023-02-18T20:14:50.092Z,4.70
2023-02-18T20:17:16.982Z,4.67
2023-02-18T20:19:43.699Z,4.67
2023-02-18T20:22:10.375Z,4.67
2023-02-18T20:24:37.830Z,4.69
2023-02-18T20:27:04.499Z,4.70
2023-02-18T20:29:33.504Z,4.74
2023-02-18T20:32:00.457Z,4.67
2023-02-18T20:34:27.619Z,4.63
2023-02-18T20:36:54.341Z,4.62
2023-02-18T20:39:21.229Z,4.60
2023-02-18T20:41:48.250Z,4.62
2023-02-18T20:44:15.982Z,4.59
2023-02-18T20:46:42.892Z,4.57
2023-02-18T20:49:13.648Z,4.55
2023-02-18T20:51:40.316Z,4.48
2023-02-18T20:54:09.279Z,4.44
2023-02-18T20:56:36.292Z,4.38
2023-02-18T20:59:03.232Z,4.36
2023-02-18T21:01:30.080Z,4.34
2023-02-18T21:03:56.844Z,4.42
2023-02-18T21:06:23.788Z,4.50
2023-02-18T21:08:51.637Z,4.56
2023-02-18T21:11:20.067Z,4.59
2023-02-18T21:13:47.479Z,4.67
2023-02-18T21:16:14.409Z,4.65
2023-02-18T21:18:41.064Z,4.69
2023-02-18T21:21:08.770Z,4.66
2023-02-18T21:23:35.546Z,4.69
2023-02-18T21:26:06.790Z,4.73
2023-02-18T21:28:33.645Z,4.72
2023-02-18T21:31:00.443Z,4.70
2023-02-18T21:33:27.286Z,4.74
2023-02-18T21:35:53.940Z,4.69
2023-02-18T21:38:20.648Z,4.66
2023-02-18T21:40:47.362Z,4.70
2023-02-18T21:43:14.110Z,4.70
2023-02-18T21:45:40.761Z,4.69
2023-02-18T21:48:25.836Z,4.65
2023-02-18T21:50:52.532Z,4.57
2023-02-18T21:53:19.283Z,4.48
2023-02-18T21:55:52.460Z,4.42
2023-02-18T21:58:28.789Z,4.35
2023-02-18T22:00:58.588Z,4.34
2023-02-18T22:03:25.386Z,4.35
2023-02-18T22:05:52.103Z,4.34
2023-02-18T22:08:18.812Z,4.31
2023-02-18T22:10:45.496Z,4.35
2023-02-18T22:13:12.126Z,4.29
2023-02-18T22:15:41.709Z,4.28
2023-02-18T22:18:08.639Z,4.28
2023-02-18T22:20:35.288Z,4.26
2023-02-18T22:23:01.901Z,4.26
2023-02-18T22:25:28.663Z,4.24
2023-02-18T22:27:55.326Z,4.19
2023-02-18T22:30:21.979Z,4.25
2023-02-18T22:32:48.587Z,4.22
2023-02-18T22:35:16.787Z,4.22
2023-02-18T22:37:43.671Z,4.22
2023-02-18T22:40:10.639Z,4.26
2023-02-18T22:42:37.307Z,4.28
2023-02-18T22:45:04.732Z,4.28
2023-02-18T22:47:31.347Z,4.28
2023-02-18T22:49:58.019Z,4.32
2023-02-18T22:52:24.638Z,4.36
2023-02-18T22:54:52.142Z,4.48
2023-02-18T22:57:19.213Z,4.46
2023-02-18T22:59:45.902Z,4.48
2023-02-18T23:02:12.569Z,4.48
2023-02-18T23:04:39.896Z,4.53
2023-02-18T23:07:06.624Z,4.53
2023-02-18T23:09:33.325Z,4.50
2023-02-18T23:12:00.030Z,4.46
2023-02-18T23:14:28.207Z,4.35
2023-02-18T23:17:14.830Z,4.35
2023-02-18T23:19:46.479Z,4.31
2023-02-18T23:22:15.208Z,4.22
2023-02-18T23:24:43.953Z,4.17
2023-02-18T23:27:12.084Z,4.11
2023-02-18T23:29:38.899Z,4.14
2023-02-18T23:32:05.907Z,4.02
2023-02-18T23:34:32.710Z,3.95
2023-02-18T23:36:59.460Z,3.93
2023-02-18T23:39:26.252Z,3.87
2023-02-18T23:41:52.886Z,3.88
2023-02-18T23:44:20.906Z,3.83
2023-02-18T23:46:47.747Z,3.77
2023-02-18T23:49:25.634Z,3.71
2023-02-18T23:51:53.094Z,3.69
2023-02-18T23:54:20.136Z,3.70
2023-02-18T23:56:46.990Z,3.74
2023-02-18T23:59:13.693Z,3.73
